createdAt,value
2023-03-16T00:03:03.875Z,4.88
2023-03-16T00:08:31.719Z,3.55
2023-03-16T00:14:02.718Z,3.20
2023-03-16T00:25:30.702Z,3.67
2023-03-16T00:30:56.743Z,4.93
2023-03-16T00:36:23.733Z,6.25
2023-03-16T00:41:57.726Z,3.90
2023-03-16T00:47:23.780Z,3.28
2023-03-16T00:52:48.729Z,2.90
2023-03-16T00:58:16.762Z,4.82
2023-03-16T01:03:41.748Z,4.35
2023-03-16T01:09:07.830Z,3.97
2023-03-16T01:14:34.796Z,4.45
2023-03-16T01:19:59.802Z,3.75
2023-03-16T01:25:27.817Z,4.57
2023-03-16T01:30:55.794Z,3.35
2023-03-16T01:36:22.761Z,4.63
2023-03-16T01:41:52.758Z,7.90
2023-03-16T01:47:20.828Z,5.40
2023-03-16T01:52:47.740Z,4.90
2023-03-16T01:58:11.767Z,4.65
2023-03-16T02:03:41.739Z,5.43
2023-03-16T02:09:13.768Z,4.38
2023-03-16T02:14:39.862Z,6.35
2023-03-16T02:20:19.879Z,5.00
2023-03-16T02:25:53.782Z,4.82
2023-03-16T02:31:24.797Z,5.90
2023-03-16T02:36:52.764Z,5.85
2023-03-16T02:42:28.760Z,5.93
2023-03-16T02:47:58.777Z,5.88
2023-03-16T02:53:23.789Z,5.95
2023-03-16T02:58:50.802Z,5.18
2023-03-16T03:04:21.863Z,4.50
2023-03-16T03:09:46.774Z,6.03
2023-03-16T03:15:12.875Z,4.82
2023-03-16T03:20:50.761Z,3.22
2023-03-16T03:26:15.812Z,4.55
2023-03-16T03:31:40.862Z,5.10
2023-03-16T03:37:07.857Z,4.95
2023-03-16T03:42:39.832Z,7.25
2023-03-16T03:48:04.789Z,4.65
2023-03-16T03:53:31.767Z,4.47
2023-03-16T03:59:10.809Z,4.22
2023-03-16T04:04:50.800Z,2.60
2023-03-16T04:10:20.803Z,7.40
2023-03-16T04:15:47.836Z,5.18
2023-03-16T04:21:18.875Z,6.68
2023-03-16T04:26:46.787Z,4.30
2023-03-16T04:32:12.797Z,4.30
2023-03-16T04:37:37.843Z,5.07
2023-03-16T04:43:11.840Z,4.93
2023-03-16T04:48:38.850Z,7.22
2023-03-16T04:54:03.807Z,4.85
2023-03-16T04:59:34.820Z,5.68
2023-03-16T05:05:13.002Z,5.88
2023-03-16T05:10:47.818Z,5.82
2023-03-16T05:16:14.930Z,6.05
2023-03-16T05:21:41.848Z,4.07
2023-03-16T05:27:09.844Z,5.75
2023-03-16T05:32:38.034Z,4.93
2023-03-16T05:38:01.821Z,5.43
2023-03-16T05:43:29.872Z,4.63
2023-03-16T05:48:58.017Z,5.18
2023-03-16T05:54:22.905Z,5.63
2023-03-16T05:59:47.838Z,4.43
2023-03-16T06:05:17.979Z,6.47
2023-03-16T06:10:42.841Z,5.18
2023-03-16T06:16:08.930Z,5.45
2023-03-16T06:21:36.102Z,5.03
2023-03-16T06:27:01.843Z,5.82
2023-03-16T06:32:37.922Z,4.35
2023-03-16T06:38:05.873Z,5.22
2023-03-16T06:43:49.886Z,3.67
2023-03-16T06:49:14.871Z,4.70
2023-03-16T06:54:43.867Z,5.90
2023-03-16T07:05:32.863Z,3.90
2023-03-16T07:11:00.844Z,6.25
2023-03-16T07:16:27.952Z,6.15
2023-03-16T07:21:54.850Z,3.95
2023-03-16T07:27:24.854Z,4.40
2023-03-16T07:32:51.934Z,3.97
2023-03-16T07:38:18.872Z,4.07
2023-03-16T07:43:55.118Z,4.55
2023-03-16T07:49:22.897Z,5.10
2023-03-16T07:54:50.171Z,8.52
2023-03-16T08:00:21.025Z,4.47
2023-03-16T08:05:45.896Z,5.25
2023-03-16T08:11:10.862Z,3.85
2023-03-16T08:16:43.989Z,3.72
2023-03-16T08:22:13.242Z,5.45
2023-03-16T08:27:39.870Z,6.05
2023-03-16T08:33:07.956Z,6.53
2023-03-16T08:38:33.231Z,6.78
2023-03-16T08:44:06.907Z,4.53
2023-03-16T08:49:34.897Z,5.32
2023-03-16T08:55:04.167Z,5.45
2023-03-16T09:00:30.132Z,7.10
2023-03-16T09:05:56.909Z,3.10
2023-03-16T09:11:24.272Z,3.28
2023-03-16T09:16:47.949Z,3.45
2023-03-16T09:22:16.899Z,5.30
2023-03-16T09:27:41.926Z,3.38
2023-03-16T09:33:06.933Z,3.20
2023-03-16T09:38:35.905Z,4.82
2023-03-16T09:44:17.920Z,5.20
2023-03-16T09:49:46.957Z,3.38
2023-03-16T09:55:20.912Z,3.80
2023-03-16T10:00:51.953Z,3.22
2023-03-16T10:06:19.934Z,5.05
2023-03-16T10:11:51.941Z,3.67
2023-03-16T10:17:22.926Z,2.08
2023-03-16T10:22:51.944Z,2.60
2023-03-16T10:28:18.993Z,1.77
2023-03-16T10:33:46.093Z,2.20
2023-03-16T10:39:13.961Z,1.23
2023-03-16T10:44:47.957Z,2.13
2023-03-16T10:50:29.106Z,3.30
2023-03-16T10:55:53.971Z,3.22
2023-03-16T11:01:27.050Z,4.15
2023-03-16T11:07:00.985Z,3.35
2023-03-16T11:12:30.964Z,1.70
2023-03-16T11:18:00.966Z,2.25
2023-03-16T11:23:24.956Z,3.75
2023-03-16T11:28:52.955Z,2.42
2023-03-16T11:34:25.972Z,3.47
2023-03-16T11:39:58.971Z,3.20
2023-03-16T11:45:31.362Z,1.92
2023-03-16T11:51:09.985Z,2.78
2023-03-16T11:56:48.268Z,2.38
2023-03-16T12:02:36.027Z,2.17
2023-03-16T12:08:13.972Z,1.40
2023-03-16T12:13:50.976Z,1.50
2023-03-16T12:19:20.978Z,2.20
2023-03-16T12:24:56.978Z,2.38
2023-03-16T12:30:43.008Z,1.42
2023-03-16T12:36:16.998Z,1.83
2023-03-16T12:42:02.000Z,2.92
2023-03-16T12:47:34.999Z,1.58
2023-03-16T12:53:01.999Z,2.08
2023-03-16T12:58:30.127Z,1.60
2023-03-16T13:03:55.026Z,2.08
2023-03-16T13:09:22.043Z,1.55
2023-03-16T13:14:56.026Z,1.35
2023-03-16T13:20:40.061Z,1.20
2023-03-16T13:26:22.086Z,1.98
2023-03-16T13:31:51.066Z,1.48
2023-03-16T13:37:17.008Z,2.05
2023-03-16T13:42:50.025Z,1.85
2023-03-16T13:48:22.165Z,4.00
2023-03-16T13:53:49.018Z,1.70
2023-03-16T13:59:15.036Z,0.95
2023-03-16T14:04:44.008Z,1.35
2023-03-16T14:10:12.139Z,1.77
2023-03-16T14:15:37.082Z,1.35
2023-03-16T14:21:06.034Z,3.83
2023-03-16T14:26:34.037Z,1.38
2023-03-16T14:31:59.071Z,1.20
2023-03-16T14:37:29.054Z,2.95
2023-03-16T14:42:54.065Z,3.58
2023-03-16T14:48:23.078Z,0.75
2023-03-16T14:53:51.078Z,1.55
2023-03-16T14:59:16.055Z,1.90
2023-03-16T15:04:44.073Z,0.80
2023-03-16T15:10:17.052Z,2.03
2023-03-16T15:15:42.084Z,0.98
2023-03-16T15:21:07.087Z,0.88
2023-03-16T15:26:37.115Z,0.90
2023-03-16T15:32:03.073Z,1.75
2023-03-16T15:37:31.083Z,1.13
2023-03-16T15:42:58.084Z,0.95
2023-03-16T15:48:26.082Z,0.93
2023-03-16T15:54:02.141Z,2.75
2023-03-16T15:59:30.121Z,2.17
2023-03-16T16:04:54.094Z,0.73
2023-03-16T16:10:23.106Z,1.02
2023-03-16T16:15:53.679Z,0.80
2023-03-16T16:21:26.132Z,1.70
2023-03-16T16:26:56.054Z,0.80
2023-03-16T16:32:33.122Z,1.20
2023-03-16T16:37:58.115Z,1.27
2023-03-16T16:43:43.129Z,2.20
2023-03-16T16:49:15.116Z,1.45
2023-03-16T16:54:43.127Z,3.13
2023-03-16T17:00:08.264Z,1.25
2023-03-16T17:05:39.143Z,2.08
2023-03-16T17:11:05.196Z,0.80
2023-03-16T17:16:32.172Z,1.50
2023-03-16T17:22:00.172Z,2.13
2023-03-16T17:27:28.145Z,1.73
2023-03-16T17:32:53.167Z,1.75
2023-03-16T17:38:28.296Z,2.25
2023-03-16T17:43:54.155Z,1.85
2023-03-16T17:49:24.176Z,1.45
2023-03-16T17:54:52.163Z,1.83
2023-03-16T18:00:21.130Z,1.33
2023-03-16T18:05:47.127Z,1.95
2023-03-16T18:11:16.142Z,1.65
2023-03-16T18:16:41.296Z,1.10
2023-03-16T18:22:06.237Z,1.50
2023-03-16T18:27:34.134Z,1.33
2023-03-16T18:32:58.342Z,1.05
2023-03-16T18:38:28.172Z,1.23
2023-03-16T18:44:02.207Z,1.25
2023-03-16T18:49:30.334Z,1.83
2023-03-16T18:54:55.161Z,1.48
2023-03-16T19:00:28.161Z,1.58
2023-03-16T19:05:52.189Z,2.50
2023-03-16T19:11:20.247Z,1.27
2023-03-16T19:16:47.192Z,2.20
2023-03-16T19:22:18.221Z,2.50
2023-03-16T19:27:50.314Z,2.07
2023-03-16T19:33:27.204Z,3.08
2023-03-16T19:38:53.197Z,1.52
2023-03-16T19:44:32.195Z,2.05
2023-03-16T19:50:01.175Z,1.90
2023-03-16T19:55:30.445Z,3.22
2023-03-16T20:00:55.263Z,1.25
2023-03-16T20:06:25.229Z,1.73
2023-03-16T20:11:50.183Z,2.25
2023-03-16T20:17:15.252Z,1.90
2023-03-16T20:22:43.288Z,2.03
2023-03-16T20:28:12.284Z,1.67
2023-03-16T20:33:38.267Z,1.52
2023-03-16T20:39:05.365Z,4.35
2023-03-16T20:44:37.207Z,2.45
2023-03-16T20:50:04.209Z,1.38
2023-03-16T20:55:33.243Z,1.63
2023-03-16T21:00:59.214Z,1.90
2023-03-16T21:06:35.362Z,2.38
2023-03-16T21:12:03.241Z,2.67
2023-03-16T21:17:31.307Z,1.92
2023-03-16T21:22:56.349Z,1.83
2023-03-16T21:28:26.309Z,1.73
2023-03-16T21:33:53.244Z,2.28
2023-03-16T21:39:29.240Z,1.35
2023-03-16T21:45:04.358Z,2.97
2023-03-16T21:50:31.537Z,4.93
2023-03-16T21:55:56.328Z,2.28
2023-03-16T22:01:32.279Z,3.33
2023-03-16T22:06:58.329Z,2.97
2023-03-16T22:12:23.239Z,2.55
2023-03-16T22:17:51.251Z,4.82
2023-03-16T22:23:19.312Z,2.00
2023-03-16T22:28:45.262Z,1.58
2023-03-16T22:34:14.244Z,1.88
2023-03-16T22:39:39.440Z,2.42
2023-03-16T22:45:12.293Z,2.67
2023-03-16T22:50:44.253Z,2.50
2023-03-16T22:56:11.288Z,2.70
2023-03-16T23:01:41.302Z,2.50
2023-03-16T23:07:10.347Z,2.70
2023-03-16T23:12:35.316Z,1.13
2023-03-16T23:17:59.275Z,1.30
2023-03-16T23:23:27.312Z,2.78
2023-03-16T23:28:51.284Z,2.00
2023-03-16T23:34:20.381Z,1.63
2023-03-16T23:39:48.303Z,1.30
2023-03-16T23:45:25.294Z,1.98
2023-03-16T23:50:51.376Z,2.92
2023-03-16T23:56:19.347Z,1.95
